Time;durP1;ratioP1;P1;durP2;ratioP2;P2;SDS_P1;SDS_P2;PMS_P1;PMS_P2;Temp;Humidity;BMP_temperature;BMP_pressure;BME280_temperature;BME280_humidity;BME280_pressure;Samples;Min_cycle;Max_cycle;Signal;HPM_P1;HPM_P2
2021/11/08 00:00:43;;;;;;;28.85;19.23;;;7.50;99.90;;;;;;5109872;28;20478;-77
2021/11/08 00:03:11;;;;;;;28.77;19.30;;;7.70;99.90;;;;;;5111655;28;20016;-77
2021/11/08 00:05:43;;;;;;;31.50;19.67;;;7.70;99.90;;;;;;5109666;28;20521;-77
2021/11/08 00:08:09;;;;;;;31.42;20.17;;;7.80;99.90;;;;;;5110435;28;20466;-77
2021/11/08 00:10:38;;;;;;;31.48;20.02;;;7.80;99.90;;;;;;5109924;28;20031;-77
2021/11/08 00:13:07;;;;;;;34.75;20.65;;;7.90;99.90;;;;;;5109080;28;20834;-77
2021/11/08 00:20:54;;;;;;;34.95;23.10;;;8.00;99.90;;;;;;5130881;27;20066;-77
2021/11/08 00:23:20;;;;;;;33.00;22.58;;;8.00;99.90;;;;;;5113112;27;20019;-77
2021/11/08 00:25:46;;;;;;;;;;;8.00;99.90;;;;;;5132494;27;20402;-78
2021/11/08 00:28:15;;;;;;;38.87;23.97;;;8.00;99.90;;;;;;5132913;27;19907;-77
2021/11/08 00:30:45;;;;;;;31.52;22.23;;;7.90;99.90;;;;;;5132742;27;20019;-78
2021/11/08 00:33:15;;;;;;;40.10;26.27;;;7.80;99.90;;;;;;5113632;27;20031;-77
2021/11/08 00:35:46;;;;;;;38.13;25.20;;;7.80;99.90;;;;;;5114326;27;20031;-77
2021/11/08 00:38:12;;;;;;;40.90;27.05;;;7.80;99.90;;;;;;5131336;27;20031;-77
2021/11/08 00:40:38;;;;;;;46.58;29.90;;;8.00;99.90;;;;;;5133188;27;20499;-78
2021/11/08 00:43:05;;;;;;;39.97;28.63;;;7.80;99.90;;;;;;5132382;27;20023;-77
2021/11/08 00:45:31;;;;;;;46.83;31.15;;;7.80;99.90;;;;;;5133600;27;20079;-78
2021/11/08 00:47:58;;;;;;;46.95;28.98;;;7.70;99.90;;;;;;5115049;27;20398;-77
2021/11/08 00:50:24;;;;;;;49.45;32.47;;;7.70;99.90;;;;;;5114926;27;20027;-78
2021/11/08 00:52:50;;;;;;;48.58;32.40;;;7.70;99.90;;;;;;5114740;27;20543;-78
2021/11/08 00:55:17;;;;;;;47.10;30.48;;;7.70;99.90;;;;;;5114893;27;20068;-77
2021/11/08 00:57:46;;;;;;;;;;;7.80;99.90;;;;;;5113300;27;20028;-77
2021/11/08 01:00:16;;;;;;;46.85;29.67;;;7.80;99.90;;;;;;5113945;27;19903;-77
2021/11/08 01:02:43;;;;;;;43.13;30.33;;;7.70;99.90;;;;;;5113663;27;20062;-77
2021/11/08 01:05:11;;;;;;;40.55;27.50;;;7.80;99.90;;;;;;5132003;27;20037;-77
2021/11/08 01:07:36;;;;;;;40.42;27.38;;;7.70;99.90;;;;;;5132584;27;20019;-78
2021/11/08 01:10:07;;;;;;;;;;;7.70;99.90;;;;;;5114547;27;20091;-77
2021/11/08 01:12:33;;;;;;;44.78;27.25;;;7.60;99.90;;;;;;5113672;27;19907;-77
2021/11/08 01:15:00;;;;;;;39.42;26.35;;;7.70;99.90;;;;;;5132058;27;20055;-78
2021/11/08 01:17:27;;;;;;;40.25;26.85;;;7.70;99.90;;;;;;5114012;27;20164;-78
2021/11/08 01:19:52;;;;;;;38.13;24.70;;;7.70;99.90;;;;;;5096471;27;20034;-78
2021/11/08 01:22:20;;;;;;;;;;;7.70;99.90;;;;;;5114176;27;20391;-78
2021/11/08 01:24:53;;;;;;;39.42;26.42;;;7.80;99.90;;;;;;5113852;27;19903;-77
2021/11/08 01:27:33;;;;;;;42.00;28.58;;;7.70;99.90;;;;;;5131862;27;20035;-78
2021/11/08 01:30:00;;;;;;;44.20;29.00;;;7.70;99.90;;;;;;5114419;27;20019;-78
2021/11/08 01:32:27;;;;;;;49.75;29.88;;;7.80;99.90;;;;;;5113886;27;20031;-78
2021/11/08 01:34:52;;;;;;;44.42;30.08;;;7.70;99.90;;;;;;5114493;27;20041;-77
2021/11/08 01:37:20;;;;;;;;;;;7.70;99.90;;;;;;5134857;27;20308;-76
2021/11/08 01:39:46;;;;;;;;;;;7.70;99.90;;;;;;5132760;27;20010;-78
2021/11/08 01:42:13;;;;;;;48.70;31.45;;;7.70;99.90;;;;;;5133056;27;20344;-77
2021/11/08 01:44:40;;;;;;;53.10;34.13;;;7.70;99.90;;;;;;5132963;27;20110;-77
2021/11/08 01:47:08;;;;;;;52.30;33.33;;;7.70;99.90;;;;;;5133652;27;20395;-78
2021/11/08 01:49:35;;;;;;;56.78;34.13;;;7.70;99.90;;;;;;5132837;27;20038;-78
2021/11/08 01:52:02;;;;;;;54.75;34.28;;;7.70;99.90;;;;;;5115252;27;20733;-77
2021/11/08 01:54:28;;;;;;;51.72;33.25;;;7.60;99.90;;;;;;5115092;27;20027;-77
2021/11/08 01:56:55;;;;;;;;;;;7.60;99.90;;;;;;5133958;27;20060;-78
2021/11/08 01:59:23;;;;;;;50.58;33.10;;;7.60;99.90;;;;;;5115371;27;19903;-78
2021/11/08 02:01:50;;;;;;;52.70;33.03;;;7.50;99.90;;;;;;5133576;27;20029;-77
2021/11/08 02:04:17;;;;;;;50.17;33.08;;;7.50;99.90;;;;;;5134121;27;20519;-78
2021/11/08 02:06:43;;;;;;;44.97;29.40;;;7.60;99.90;;;;;;5135457;27;20106;-78
2021/11/08 02:09:08;;;;;;;;;;;7.50;99.90;;;;;;5115813;27;20054;-77
2021/11/08 02:11:35;;;;;;;45.65;28.67;;;7.50;99.90;;;;;;5115516;27;20355;-77
2021/11/08 02:14:02;;;;;;;39.65;27.08;;;7.50;99.90;;;;;;5134066;27;20181;-77
2021/11/08 02:16:28;;;;;;;47.88;31.27;;;7.50;99.90;;;;;;5113757;27;20051;-77
2021/11/08 02:18:54;;;;;;;;;;;7.50;99.90;;;;;;5133075;27;20023;-77
2021/11/08 02:21:22;;;;;;;46.00;29.55;;;7.60;99.90;;;;;;5133700;27;19915;-78
2021/11/08 02:23:48;;;;;;;42.08;28.00;;;7.50;99.90;;;;;;5135847;27;20107;-79
2021/11/08 02:26:16;;;;;;;;;;;7.50;99.90;;;;;;5121605;27;20037;-79
2021/11/08 02:28:47;;;;;;;41.58;27.35;;;7.40;99.90;;;;;;5120086;28;19926;-78
2021/11/08 02:31:17;;;;;;;47.15;28.15;;;7.50;99.90;;;;;;5112704;27;20015;-77
2021/11/08 02:33:43;;;;;;;40.30;26.27;;;7.50;99.90;;;;;;5129815;27;20053;-79
2021/11/08 02:36:09;;;;;;;39.50;27.88;;;7.50;99.90;;;;;;5130108;27;20060;-79
2021/11/08 02:38:39;;;;;;;;;;;7.40;99.90;;;;;;5112476;27;20031;-79
2021/11/08 02:41:05;;;;;;;43.67;28.00;;;7.50;99.90;;;;;;5130756;27;19994;-78
2021/11/08 02:43:31;;;;;;;;;;;7.40;99.90;;;;;;5112649;27;20251;-77
2021/11/08 02:46:14;;;;;;;37.20;23.50;;;7.30;99.90;;;;;;5112284;28;19969;-78
2021/11/08 02:48:42;;;;;;;33.20;21.00;;;7.30;99.90;;;;;;5129342;28;20052;-77
2021/11/08 02:51:23;;;;;;;30.40;20.25;;;7.40;99.90;;;;;;5128169;28;20019;-77
2021/11/08 02:53:54;;;;;;;27.08;19.42;;;7.40;99.90;;;;;;5111396;28;20027;-78
2021/11/08 02:56:20;;;;;;;30.15;19.42;;;7.40;99.90;;;;;;5130741;28;20043;-78
2021/11/08 02:58:46;;;;;;;;;;;7.40;99.90;;;;;;5130720;28;20031;-77
2021/11/08 03:01:19;;;;;;;24.00;13.77;;;7.40;99.90;;;;;;5111669;28;19907;-77
2021/11/08 03:03:47;;;;;;;18.90;12.02;;;7.40;99.90;;;;;;5130477;28;20608;-78
2021/11/08 03:06:20;;;;;;;16.67;10.85;;;7.40;99.90;;;;;;5129935;28;20433;-77
2021/11/08 03:08:47;;;;;;;15.75;10.95;;;7.40;99.90;;;;;;5130473;28;20084;-77
2021/11/08 03:11:13;;;;;;;16.27;10.20;;;7.50;99.90;;;;;;5129774;28;20488;-77
2021/11/08 03:13:45;;;;;;;;;;;7.50;99.90;;;;;;5131649;28;20051;-78
2021/11/08 03:16:55;;;;;;;17.35;11.30;;;7.50;99.90;;;;;;5114608;28;19922;-79
2021/11/08 03:19:03;;;;;;;16.15;11.32;;;7.50;99.90;;;;;;5122052;27;20031;-77
2021/11/08 03:21:32;;;;;;;16.42;10.85;;;7.50;99.90;;;;;;5116533;27;20031;-77
2021/11/08 03:24:01;;;;;;;14.30;9.93;;;7.50;99.90;;;;;;5115961;27;20106;-77
2021/11/08 03:26:39;;;;;;;14.73;9.88;;;7.60;99.90;;;;;;5134653;27;20015;-77
2021/11/08 03:29:05;;;;;;;17.08;10.68;;;7.60;99.90;;;;;;5133802;27;20065;-78
2021/11/08 03:31:33;;;;;;;12.23;9.23;;;7.60;99.90;;;;;;5115896;27;20058;-77
2021/11/08 03:33:59;;;;;;;14.82;10.35;;;7.50;99.90;;;;;;5115372;27;20027;-78
2021/11/08 03:36:25;;;;;;;;;;;7.50;99.90;;;;;;5115292;27;20134;-78
2021/11/08 03:38:51;;;;;;;14.50;9.07;;;7.50;99.90;;;;;;5115392;27;20403;-78
2021/11/08 03:41:17;;;;;;;11.68;7.60;;;7.50;99.90;;;;;;5133810;27;20031;-77
2021/11/08 03:43:43;;;;;;;10.77;7.10;;;7.50;99.90;;;;;;5133920;27;20031;-78
2021/11/08 03:46:09;;;;;;;;;;;7.50;99.90;;;;;;5116510;27;20027;-78
2021/11/08 03:48:35;;;;;;;12.00;6.80;;;7.60;99.90;;;;;;5134000;27;20446;-78
2021/11/08 03:51:01;;;;;;;11.52;7.40;;;7.60;99.90;;;;;;5115568;27;20037;-77
2021/11/08 03:53:27;;;;;;;;;;;7.60;99.90;;;;;;5134193;27;20769;-77
2021/11/08 03:55:54;;;;;;;14.57;7.40;;;7.60;99.90;;;;;;5115591;27;20379;-77
2021/11/08 03:58:20;;;;;;;;;;;7.70;99.90;;;;;;5115673;27;20028;-78
2021/11/08 04:00:46;;;;;;;7.25;4.80;;;7.70;99.90;;;;;;5115768;27;19942;-77
2021/11/08 04:03:13;;;;;;;9.50;5.43;;;7.70;99.90;;;;;;5134067;27;20100;-76
2021/11/08 04:05:40;;;;;;;8.32;5.05;;;7.80;99.90;;;;;;5114805;27;20035;-76
2021/11/08 04:08:12;;;;;;;8.30;4.80;;;7.90;99.90;;;;;;5114630;27;20506;-76
2021/11/08 04:10:41;;;;;;;7.90;4.97;;;7.90;99.90;;;;;;5115391;27;20027;-77
2021/11/08 04:13:07;;;;;;;8.65;5.75;;;7.80;99.90;;;;;;5114748;27;20118;-78
2021/11/08 04:15:37;;;;;;;8.40;4.75;;;7.80;99.90;;;;;;5115040;27;20057;-78
2021/11/08 04:18:19;;;;;;;8.10;5.00;;;7.90;99.90;;;;;;5133092;27;20037;-77
2021/11/08 04:20:48;;;;;;;7.07;4.90;;;7.90;99.90;;;;;;5132478;27;20035;-77
2021/11/08 04:23:20;;;;;;;7.72;5.25;;;7.90;99.90;;;;;;5114464;27;20027;-77
2021/11/08 04:25:45;;;;;;;8.25;5.30;;;7.90;99.90;;;;;;5114400;27;20457;-77
2021/11/08 04:28:11;;;;;;;;;;;7.90;99.90;;;;;;5115735;27;20427;-77
2021/11/08 04:30:42;;;;;;;8.85;5.38;;;7.90;99.90;;;;;;5132807;27;19907;-77
2021/11/08 04:36:00;;;;;;;9.20;6.07;;;7.90;99.90;;;;;;5134690;27;20440;-77
2021/11/08 04:51:49;;;;;;;9.88;4.70;;;7.70;99.90;;;;;;5134692;27;20439;-77
2021/11/08 05:32:12;;;;;;;13.52;6.35;;;7.80;99.90;;;;;;5132695;27;20056;-79
2021/11/08 05:34:38;;;;;;;9.60;6.30;;;7.80;99.90;;;;;;5112576;27;20586;-76
2021/11/08 05:37:08;;;;;;;;;;;7.80;99.90;;;;;;5112282;27;20110;-77
2021/11/08 05:39:35;;;;;;;14.07;5.72;;;7.80;99.90;;;;;;5111533;27;19907;-77
2021/11/08 05:42:03;;;;;;;13.25;6.93;;;7.70;99.90;;;;;;5131076;27;20051;-78
2021/11/08 05:44:29;;;;;;;10.25;5.65;;;7.80;99.90;;;;;;5130703;27;20102;-78
2021/11/08 05:46:55;;;;;;;10.02;5.47;;;7.80;99.90;;;;;;5146370;27;20062;-78
2021/11/08 05:49:21;;;;;;;;;;;7.80;99.90;;;;;;5132585;27;20042;-77
2021/11/08 05:51:47;;;;;;;13.05;6.00;;;7.90;99.90;;;;;;5112643;27;19911;-77
2021/11/08 05:54:12;;;;;;;;;;;7.90;99.90;;;;;;5114084;27;20015;-76
2021/11/08 06:50:58;;;;;;;8.63;5.53;;;8.30;99.90;;;;;;5130770;28;20035;-78
2021/11/08 06:53:24;;;;;;;10.13;5.90;;;8.30;99.90;;;;;;5112520;27;20495;-78
2021/11/08 06:55:52;;;;;;;;;;;8.30;99.90;;;;;;5116456;27;20061;-78
2021/11/08 06:58:21;;;;;;;10.07;5.38;;;8.20;99.90;;;;;;5120853;27;19908;-75
2021/11/08 07:00:49;;;;;;;8.98;5.55;;;8.20;99.90;;;;;;5115673;27;20027;-76
2021/11/08 07:03:15;;;;;;;10.00;5.45;;;8.20;99.90;;;;;;5115963;27;20076;-77
2021/11/08 07:05:41;;;;;;;14.73;7.25;;;8.20;99.90;;;;;;5116173;27;20138;-77
2021/11/08 07:08:07;;;;;;;;;;;8.20;99.90;;;;;;5116217;27;20062;-77
2021/11/08 07:10:33;;;;;;;9.00;5.82;;;8.30;99.90;;;;;;5115278;27;19941;-77
2021/11/08 07:12:59;;;;;;;10.82;5.05;;;8.30;99.90;;;;;;5115936;27;20609;-76
2021/11/08 07:15:25;;;;;;;;;;;8.40;99.90;;;;;;5117497;27;20141;-76
2021/11/08 07:17:51;;;;;;;13.65;5.78;;;8.40;99.90;;;;;;5116399;27;19969;-76
2021/11/08 07:20:18;;;;;;;12.55;4.95;;;8.40;99.90;;;;;;5116511;27;20038;-77
2021/11/08 07:22:46;;;;;;;10.07;5.05;;;8.40;99.90;;;;;;5134231;27;20019;-77
2021/11/08 07:25:11;;;;;;;7.97;3.88;;;8.50;99.90;;;;;;5115806;27;20023;-76
2021/11/08 07:27:37;;;;;;;;;;;8.60;99.90;;;;;;5134960;27;20027;-78
2021/11/08 07:30:04;;;;;;;6.88;4.28;;;8.70;99.90;;;;;;5134267;27;19907;-76
2021/11/08 07:32:30;;;;;;;9.00;4.38;;;8.80;99.90;;;;;;5115460;27;20514;-76
2021/11/08 07:34:56;;;;;;;;;;;8.90;99.90;;;;;;5116957;27;20106;-76
2021/11/08 07:37:23;;;;;;;9.88;3.53;;;9.00;99.90;;;;;;5117325;27;19913;-77
2021/11/08 07:39:49;;;;;;;7.93;4.25;;;9.10;99.90;;;;;;5134317;27;20110;-78
2021/11/08 07:42:16;;;;;;;8.25;4.47;;;9.10;99.90;;;;;;5132825;27;20034;-76
2021/11/08 07:44:42;;;;;;;8.88;4.00;;;9.10;99.90;;;;;;5113977;27;20023;-76
2021/11/08 07:47:08;;;;;;;7.35;4.03;;;9.10;99.90;;;;;;5112674;27;20077;-76
2021/11/08 07:49:34;;;;;;;;;;;9.10;99.90;;;;;;5132996;27;20019;-77
2021/11/08 07:52:00;;;;;;;6.13;3.50;;;9.10;99.90;;;;;;5114059;27;19911;-77
2021/11/08 07:54:29;;;;;;;;;;;9.10;99.90;;;;;;5114040;27;20046;-76
2021/11/08 07:56:56;;;;;;;6.35;3.55;;;9.10;99.90;;;;;;5114121;27;20489;-76
2021/11/08 07:59:22;;;;;;;6.45;3.78;;;9.10;99.90;;;;;;5132729;27;20026;-77
2021/11/08 08:01:48;;;;;;;;;;;9.10;99.90;;;;;;5114282;27;20633;-76
2021/11/08 08:04:16;;;;;;;7.10;2.65;;;9.20;99.90;;;;;;5114765;27;20009;-76
2021/11/08 08:06:42;;;;;;;7.07;3.20;;;9.20;99.90;;;;;;5132717;27;20479;-77
2021/11/08 08:09:08;;;;;;;6.25;3.55;;;9.30;99.90;;;;;;5113928;27;20073;-77
2021/11/08 08:11:33;;;;;;;;;;;9.30;99.90;;;;;;5132562;27;20019;-76
2021/11/08 08:14:00;;;;;;;6.32;3.40;;;9.40;99.90;;;;;;5131915;27;19986;-77
2021/11/08 08:16:27;;;;;;;6.43;3.40;;;9.50;99.90;;;;;;5113087;27;20051;-76
2021/11/08 08:18:54;;;;;;;6.43;3.28;;;9.60;99.90;;;;;;5113059;27;20027;-77
2021/11/08 08:21:20;;;;;;;7.07;3.38;;;9.80;99.90;;;;;;5113272;27;20027;-76
2021/11/08 08:23:53;;;;;;;6.13;3.05;;;9.80;99.90;;;;;;5112194;27;20027;-77
2021/11/08 08:26:20;;;;;;;5.70;3.28;;;9.90;99.90;;;;;;5130545;27;20054;-76
2021/11/08 08:28:46;;;;;;;6.03;2.90;;;10.10;99.90;;;;;;5111132;27;20114;-76
2021/11/08 08:31:12;;;;;;;;;;;10.20;99.90;;;;;;5111310;27;20176;-77
2021/11/08 08:33:38;;;;;;;6.40;2.38;;;10.20;99.90;;;;;;5111151;27;20702;-76
2021/11/08 08:36:04;;;;;;;7.25;2.70;;;10.40;99.90;;;;;;5129728;27;20512;-76
2021/11/08 08:38:32;;;;;;;5.70;2.90;;;10.50;99.90;;;;;;5110493;27;20046;-77
2021/11/08 08:40:58;;;;;;;3.88;2.40;;;10.60;99.90;;;;;;5110939;27;20038;-76
2021/11/08 08:43:26;;;;;;;8.20;2.83;;;10.80;99.90;;;;;;5129267;27;20596;-77
2021/11/08 08:45:53;;;;;;;4.68;2.15;;;11.10;99.90;;;;;;5110488;27;20031;-78
2021/11/08 08:48:19;;;;;;;4.65;2.72;;;11.30;99.90;;;;;;5110724;27;20052;-78
2021/11/08 08:50:46;;;;;;;7.63;2.35;;;11.60;99.90;;;;;;5110459;27;20140;-78
2021/11/08 08:53:11;;;;;;;5.75;2.60;;;11.80;99.90;;;;;;5110777;27;20758;-77
2021/11/08 08:55:38;;;;;;;;;;;12.00;99.90;;;;;;5111083;27;20041;-78
2021/11/08 08:58:06;;;;;;;3.30;1.90;;;12.20;98.70;;;;;;5129533;27;19907;-78
2021/11/08 09:00:33;;;;;;;7.00;2.05;;;12.20;98.80;;;;;;5110135;27;20057;-80
2021/11/08 09:02:59;;;;;;;7.18;2.35;;;12.20;99.00;;;;;;5110472;27;20023;-79
2021/11/08 09:05:25;;;;;;;;;;;12.40;98.10;;;;;;5110856;27;20027;-80
2021/11/08 09:07:52;;;;;;;6.60;2.20;;;12.50;98.20;;;;;;5129087;27;20002;-78
2021/11/08 09:10:20;;;;;;;4.78;1.80;;;12.60;97.70;;;;;;5110283;27;20023;-79
2021/11/08 09:12:45;;;;;;;8.90;2.08;;;12.70;97.20;;;;;;5128445;27;20042;-79
2021/11/08 09:15:11;;;;;;;;;;;12.90;96.80;;;;;;5128781;27;20047;-79
2021/11/08 09:17:37;;;;;;;4.65;2.22;;;12.90;95.60;;;;;;5110066;27;20481;-79
2021/11/08 09:20:03;;;;;;;;;;;12.90;95.00;;;;;;5110747;27;20164;-79
2021/11/08 09:22:29;;;;;;;6.47;2.85;;;13.00;94.30;;;;;;5109894;27;19907;-79
2021/11/08 09:24:54;;;;;;;;;;;13.00;94.10;;;;;;5129021;27;20505;-78
2021/11/08 09:27:20;;;;;;;3.78;2.05;;;13.00;93.70;;;;;;5110110;27;20534;-78
2021/11/08 09:29:46;;;;;;;;;;;13.00;93.40;;;;;;5128540;27;20534;-79
2021/11/08 09:32:11;;;;;;;4.63;2.35;;;13.00;93.30;;;;;;5110237;27;19907;-76
2021/11/08 09:34:45;;;;;;;;;;;13.00;93.00;;;;;;5128532;27;20055;-79
2021/11/08 09:37:14;;;;;;;4.15;2.08;;;13.00;92.40;;;;;;5128527;27;19907;-77
2021/11/08 09:39:40;;;;;;;6.03;2.35;;;13.20;92.00;;;;;;5109509;27;20027;-78
2021/11/08 09:42:15;;;;;;;4.82;1.70;;;13.20;91.20;;;;;;5109792;27;20031;-78
2021/11/08 09:44:42;;;;;;;5.25;1.92;;;13.20;90.90;;;;;;5127737;27;20163;-77
2021/11/08 09:47:08;;;;;;;4.53;1.70;;;13.10;90.70;;;;;;5109786;27;20419;-78
2021/11/08 09:49:36;;;;;;;6.18;2.30;;;13.00;90.70;;;;;;5128314;27;20159;-79
2021/11/08 09:52:05;;;;;;;6.70;2.40;;;12.90;90.40;;;;;;5128198;27;20042;-80
2021/11/08 09:54:33;;;;;;;3.42;1.77;;;12.80;90.60;;;;;;5109603;27;20031;-79
2021/11/08 09:57:02;;;;;;;7.28;2.20;;;12.70;90.40;;;;;;5109584;27;20031;-78
2021/11/08 09:59:31;;;;;;;4.30;1.90;;;12.70;90.00;;;;;;5109084;27;20117;-78
2021/11/08 10:01:57;;;;;;;4.05;1.90;;;12.60;89.00;;;;;;5128058;27;20027;-80
2021/11/08 10:04:23;;;;;;;;;;;12.40;88.50;;;;;;5110121;27;20224;-79
2021/11/08 10:06:49;;;;;;;7.57;2.70;;;12.50;88.70;;;;;;5109360;27;19904;-78
2021/11/08 10:09:19;;;;;;;7.70;2.65;;;12.40;89.90;;;;;;5108989;27;20029;-78
2021/11/08 10:11:47;;;;;;;7.63;2.92;;;12.40;89.90;;;;;;5109476;27;20050;-78
2021/11/08 10:14:14;;;;;;;7.60;2.92;;;12.40;89.50;;;;;;5108661;27;20030;-80
2021/11/08 10:16:41;;;;;;;6.13;2.15;;;12.40;90.00;;;;;;5127316;27;20571;-78
2021/11/08 10:19:09;;;;;;;5.45;1.73;;;12.40;90.10;;;;;;5108715;27;20039;-81
2021/11/08 10:21:41;;;;;;;4.10;1.83;;;12.50;90.40;;;;;;5109601;27;20121;-79
2021/11/08 10:24:10;;;;;;;3.28;1.10;;;12.50;90.30;;;;;;5127891;27;20027;-77
2021/11/08 10:26:37;;;;;;;8.52;1.40;;;12.50;90.30;;;;;;5108651;27;20192;-78
2021/11/08 10:29:17;;;;;;;2.67;1.30;;;12.30;90.40;;;;;;5126079;27;20023;-79
2021/11/08 10:31:52;;;;;;;4.88;1.42;;;12.30;90.40;;;;;;5109408;27;20069;-78
2021/11/08 10:34:20;;;;;;;5.63;1.70;;;12.10;90.50;;;;;;5127199;27;20171;-80
2021/11/08 10:36:54;;;;;;;2.42;1.35;;;12.10;90.60;;;;;;5127305;27;20515;-76
2021/11/08 10:39:20;;;;;;;5.32;2.00;;;12.00;90.50;;;;;;5108747;27;20058;-77
2021/11/08 10:41:46;;;;;;;;;;;12.00;90.40;;;;;;5109052;27;20069;-77
2021/11/08 10:44:16;;;;;;;4.43;1.50;;;12.10;90.60;;;;;;5126791;27;20052;-79
2021/11/08 10:46:50;;;;;;;3.80;1.27;;;12.10;91.30;;;;;;5127024;27;20019;-76
2021/11/08 10:49:18;;;;;;;2.72;0.98;;;12.20;91.40;;;;;;5126747;28;20031;-77
2021/11/08 10:51:50;;;;;;;4.60;1.42;;;12.30;91.30;;;;;;5127002;28;20033;-78
2021/11/08 10:54:22;;;;;;;2.95;1.05;;;12.30;90.50;;;;;;5127384;28;20035;-79
2021/11/08 10:56:59;;;;;;;4.10;1.23;;;12.30;90.40;;;;;;5108261;28;20516;-80
2021/11/08 10:59:31;;;;;;;5.25;2.10;;;12.30;90.30;;;;;;5126748;28;20095;-78
2021/11/08 11:02:02;;;;;;;6.93;1.77;;;12.20;90.10;;;;;;5127372;28;20063;-78
2021/11/08 11:04:32;;;;;;;4.40;1.67;;;12.20;90.30;;;;;;5108869;28;20012;-79
2021/11/08 11:06:59;;;;;;;5.43;2.60;;;12.10;90.20;;;;;;5108707;28;20034;-78
2021/11/08 11:09:27;;;;;;;4.45;1.38;;;12.10;89.90;;;;;;5108847;28;20034;-78
2021/11/08 11:12:07;;;;;;;3.67;1.33;;;12.10;89.80;;;;;;5108552;28;20057;-80
2021/11/08 11:14:49;;;;;;;4.63;1.33;;;12.10;89.70;;;;;;5107828;28;20403;-80
2021/11/08 11:17:24;;;;;;;6.05;1.38;;;12.10;90.10;;;;;;5108873;28;20524;-79
2021/11/08 11:20:03;;;;;;;4.07;1.73;;;12.20;89.90;;;;;;5108291;28;20056;-77
2021/11/08 11:22:29;;;;;;;3.95;1.20;;;12.20;89.20;;;;;;5108367;28;20023;-78
2021/11/08 11:24:56;;;;;;;3.65;1.83;;;12.30;88.30;;;;;;5126579;28;20031;-78
2021/11/08 11:27:25;;;;;;;6.80;1.90;;;12.20;88.70;;;;;;5108635;28;20285;-78
2021/11/08 11:29:52;;;;;;;3.60;1.30;;;12.30;87.90;;;;;;5126386;28;20555;-79
2021/11/08 11:32:20;;;;;;;6.18;1.35;;;12.20;87.80;;;;;;5108833;28;20035;-79
2021/11/08 11:34:47;;;;;;;5.03;1.67;;;12.20;87.60;;;;;;5107966;28;20514;-78
2021/11/08 11:37:15;;;;;;;4.78;1.15;;;12.20;87.40;;;;;;5108311;28;20062;-77
2021/11/08 11:39:41;;;;;;;5.57;1.60;;;12.30;87.60;;;;;;5126461;27;20544;-80
2021/11/08 11:42:06;;;;;;;;;;;12.30;87.80;;;;;;5112516;27;20118;-78
2021/11/08 11:44:35;;;;;;;4.78;1.40;;;12.30;88.20;;;;;;5111379;27;19914;-79
2021/11/08 11:47:01;;;;;;;7.88;1.55;;;12.40;88.00;;;;;;5111926;27;20679;-78
2021/11/08 11:49:27;;;;;;;6.10;1.70;;;12.30;88.20;;;;;;5130522;27;20054;-78
2021/11/08 11:51:54;;;;;;;;;;;12.30;88.10;;;;;;5112609;27;20058;-78
2021/11/08 11:54:25;;;;;;;5.57;1.60;;;12.40;87.20;;;;;;5111885;27;20109;-78
2021/11/08 11:56:52;;;;;;;3.20;1.35;;;12.30;86.70;;;;;;5130294;27;20039;-77
2021/11/08 11:59:19;;;;;;;3.63;1.50;;;12.30;88.00;;;;;;5130030;27;20645;-78
2021/11/08 12:01:45;;;;;;;5.22;1.63;;;12.30;87.30;;;;;;5130187;27;20042;-79
2021/11/08 12:04:11;;;;;;;;;;;12.20;87.20;;;;;;5130971;27;20031;-77
2021/11/08 12:06:42;;;;;;;5.77;1.73;;;12.20;88.30;;;;;;5111769;27;20298;-78
2021/11/08 12:09:10;;;;;;;3.05;1.10;;;12.20;88.60;;;;;;5111247;27;20275;-78
2021/11/08 12:11:44;;;;;;;7.20;1.55;;;12.30;87.70;;;;;;5111869;27;20096;-75
2021/11/08 12:14:22;;;;;;;4.70;1.65;;;12.20;87.20;;;;;;5111727;27;20088;-78
2021/11/08 12:16:58;;;;;;;4.68;1.63;;;12.20;88.00;;;;;;5107855;28;20128;-77
2021/11/08 12:19:35;;;;;;;4.63;1.60;;;12.20;87.60;;;;;;5109389;28;20020;-76
2021/11/08 12:22:19;;;;;;;5.45;2.20;;;12.20;85.70;;;;;;5107485;28;20023;-78
2021/11/08 12:24:59;;;;;;;6.00;2.05;;;12.10;85.60;;;;;;5109260;28;20019;-76
2021/11/08 12:27:44;;;;;;;4.32;1.83;;;12.10;88.20;;;;;;5107164;28;20115;-78
2021/11/08 12:30:12;;;;;;;3.28;1.50;;;12.00;88.40;;;;;;5109236;28;20389;-78
2021/11/08 12:32:59;;;;;;;4.57;1.35;;;12.00;88.10;;;;;;5108986;28;20078;-77
2021/11/08 12:35:37;;;;;;;4.95;1.55;;;11.90;88.80;;;;;;5107192;28;20364;-77
2021/11/08 12:38:20;;;;;;;4.30;1.45;;;11.90;89.20;;;;;;5107428;28;20522;-78
2021/11/08 12:40:48;;;;;;;5.07;1.45;;;12.10;88.40;;;;;;5107407;28;20408;-79
2021/11/08 12:43:28;;;;;;;5.32;1.95;;;12.00;88.00;;;;;;5108194;28;20024;-79
2021/11/08 12:45:54;;;;;;;2.83;1.40;;;12.10;88.40;;;;;;5102248;28;20058;-78
2021/11/08 12:48:19;;;;;;;;;;;12.20;88.60;;;;;;5105980;28;20492;-77
2021/11/08 12:50:49;;;;;;;5.93;2.03;;;12.30;87.60;;;;;;5104462;28;20395;-79
2021/11/08 12:53:21;;;;;;;3.92;1.58;;;12.30;87.10;;;;;;5104380;28;20035;-78
2021/11/08 12:55:46;;;;;;;5.50;1.40;;;12.40;87.30;;;;;;5105198;28;20047;-77
2021/11/08 12:58:12;;;;;;;;;;;12.40;87.10;;;;;;5107823;28;20400;-77
2021/11/08 13:00:40;;;;;;;5.63;1.70;;;12.40;84.20;;;;;;5106195;28;19972;-78
2021/11/08 13:03:16;;;;;;;2.85;1.52;;;12.50;80.30;;;;;;5106037;28;20629;-78
2021/11/08 13:05:48;;;;;;;3.80;1.77;;;12.40;81.00;;;;;;5107334;28;20114;-79
2021/11/08 13:08:20;;;;;;;4.68;1.70;;;12.40;81.90;;;;;;5104541;28;20085;-81
2021/11/08 13:11:11;;;;;;;5.55;1.58;;;12.40;81.40;;;;;;5106013;28;20031;-77
2021/11/08 13:13:39;;;;;;;4.25;1.33;;;12.30;81.40;;;;;;5106033;28;20043;-77
2021/11/08 13:16:10;;;;;;;3.83;1.30;;;12.10;82.70;;;;;;5087083;28;20090;-76
2021/11/08 13:18:39;;;;;;;5.10;1.73;;;11.90;83.40;;;;;;5088222;28;20048;-77
2021/11/08 13:21:05;;;;;;;6.30;1.40;;;11.70;83.90;;;;;;5104850;28;20144;-76
2021/11/08 13:23:32;;;;;;;;;;;11.70;84.90;;;;;;5093209;28;20105;-78
2021/11/08 13:25:58;;;;;;;;;;;11.60;85.40;;;;;;5093643;28;19920;-78
2021/11/08 13:28:27;;;;;;;4.35;1.40;;;11.50;86.10;;;;;;5092603;28;19927;-78
2021/11/08 13:30:56;;;;;;;4.25;1.40;;;11.50;86.70;;;;;;5107118;28;20028;-79
2021/11/08 13:33:25;;;;;;;3.42;1.58;;;11.40;86.20;;;;;;5106981;28;20112;-76
2021/11/08 13:35:51;;;;;;;3.88;1.20;;;11.40;86.30;;;;;;5100987;27;20118;-77
2021/11/08 13:38:21;;;;;;;1.58;0.82;;;11.40;87.30;;;;;;5128733;27;20023;-79
2021/11/08 13:40:52;;;;;;;3.60;1.38;;;11.40;88.80;;;;;;5110026;27;20042;-78
2021/11/08 13:43:27;;;;;;;3.08;1.08;;;11.40;89.90;;;;;;5125343;27;20035;-79
2021/11/08 13:45:57;;;;;;;5.25;1.40;;;11.40;90.60;;;;;;5109328;27;20054;-79
2021/11/08 13:48:43;;;;;;;5.88;1.48;;;11.50;90.90;;;;;;5109893;27;20057;-79
2021/11/08 13:51:21;;;;;;;6.07;1.73;;;11.50;91.00;;;;;;5109561;27;20201;-78
2021/11/08 13:53:51;;;;;;;5.38;1.77;;;11.60;91.20;;;;;;5127792;27;20073;-78
2021/11/08 13:56:18;;;;;;;5.95;1.67;;;11.50;91.10;;;;;;5109522;27;20091;-79
2021/11/08 13:58:52;;;;;;;5.03;1.55;;;11.40;91.30;;;;;;5127056;27;20019;-79
2021/11/08 14:01:20;;;;;;;6.80;1.38;;;11.40;91.40;;;;;;5128089;27;20027;-80
2021/11/08 14:03:50;;;;;;;10.07;1.67;;;11.40;91.80;;;;;;5127794;27;20027;-78
2021/11/08 14:06:36;;;;;;;5.68;1.70;;;11.40;91.80;;;;;;5087182;27;20069;-77
2021/11/08 14:09:06;;;;;;;7.28;1.90;;;11.40;91.60;;;;;;5109263;27;20587;-77
2021/11/08 14:11:43;;;;;;;4.78;1.77;;;11.20;91.70;;;;;;5127140;27;20027;-77
2021/11/08 14:14:15;;;;;;;5.13;1.50;;;11.10;92.10;;;;;;5109356;27;20031;-77
2021/11/08 14:16:43;;;;;;;12.32;1.85;;;10.90;92.70;;;;;;5142999;27;20553;-77
2021/11/08 14:19:12;;;;;;;4.30;1.73;;;10.70;93.50;;;;;;5148450;27;20095;-77
2021/11/08 14:21:39;;;;;;;6.00;1.58;;;10.60;94.30;;;;;;5130938;27;20054;-77
2021/11/08 14:24:08;;;;;;;3.08;1.33;;;10.50;94.70;;;;;;5148613;27;20033;-77
2021/11/08 14:26:37;;;;;;;4.30;2.03;;;10.40;95.30;;;;;;5130750;27;20041;-78
2021/11/08 14:29:18;;;;;;;5.40;1.60;;;10.30;95.70;;;;;;5130744;27;20023;-77
2021/11/08 14:31:44;;;;;;;7.35;2.30;;;10.30;96.20;;;;;;5131191;27;20027;-77
2021/11/08 14:34:16;;;;;;;6.05;2.17;;;10.20;96.60;;;;;;5131430;27;20409;-78
2021/11/08 14:36:49;;;;;;;21.38;11.18;;;10.20;96.90;;;;;;5130076;27;20045;-76
2021/11/08 14:39:17;;;;;;;13.13;7.35;;;10.10;97.30;;;;;;5130724;27;20079;-78
2021/11/08 14:42:03;;;;;;;9.15;5.70;;;10.10;97.60;;;;;;5150088;27;20027;-77
2021/11/08 14:44:43;;;;;;;13.38;7.55;;;10.00;98.20;;;;;;5130802;27;20066;-77
2021/11/08 14:47:21;;;;;;;37.17;16.90;;;10.00;98.60;;;;;;5131147;27;20022;-77
2021/11/08 14:50:04;;;;;;;28.95;14.52;;;9.90;98.50;;;;;;5131945;27;20042;-77
2021/11/08 14:52:37;;;;;;;15.88;6.18;;;9.90;98.70;;;;;;5149855;27;20023;-78
2021/11/08 14:55:13;;;;;;;10.25;4.63;;;10.00;97.90;;;;;;5132790;27;20033;-78
2021/11/08 14:57:45;;;;;;;19.63;5.75;;;9.90;97.70;;;;;;5150731;27;20027;-79
2021/11/08 15:00:15;;;;;;;18.63;9.20;;;10.00;97.80;;;;;;5132286;27;20508;-77